createdAt,value
2018-10-07T00:00:34.727Z,12.83
2018-10-07T00:03:05.485Z,12.96
2018-10-07T00:05:34.586Z,13.05
2018-10-07T00:08:03.689Z,13.02
2018-10-07T00:10:32.806Z,12.97
2018-10-07T00:13:01.911Z,12.94
2018-10-07T00:15:31.033Z,12.99
2018-10-07T00:18:00.122Z,13.13
2018-10-07T00:20:29.741Z,13.10
2018-10-07T00:22:58.915Z,13.03
2018-10-07T00:25:28.006Z,12.97
2018-10-07T00:27:57.126Z,13.00
2018-10-07T00:30:26.230Z,12.96
2018-10-07T00:32:55.407Z,12.82
2018-10-07T00:35:24.629Z,12.85
2018-10-07T00:37:53.726Z,13.04
2018-10-07T00:40:23.598Z,13.11
2018-10-07T00:42:52.718Z,13.06
2018-10-07T00:45:22.510Z,13.16
2018-10-07T00:47:51.759Z,13.24
2018-10-07T00:50:20.508Z,13.22
2018-10-07T00:52:49.669Z,13.25
2018-10-07T00:55:18.778Z,13.25
2018-10-07T00:57:47.881Z,13.11
2018-10-07T01:00:16.982Z,13.22
2018-10-07T01:02:46.121Z,13.35
2018-10-07T01:05:15.254Z,13.44
2018-10-07T01:07:44.386Z,13.41
2018-10-07T01:10:13.491Z,13.43
2018-10-07T01:12:42.621Z,13.41
2018-10-07T01:15:11.778Z,13.48
2018-10-07T01:17:40.874Z,13.53
2018-10-07T01:20:09.987Z,13.49
2018-10-07T01:22:40.418Z,13.46
2018-10-07T01:25:09.519Z,13.50
2018-10-07T01:27:38.630Z,13.54
2018-10-07T01:30:08.206Z,13.54
2018-10-07T01:32:37.370Z,13.32
2018-10-07T01:35:06.480Z,13.44
2018-10-07T01:37:35.603Z,13.47
2018-10-07T01:40:04.807Z,13.41
2018-10-07T01:42:34.040Z,13.43
2018-10-07T01:45:03.208Z,13.51
2018-10-07T01:47:31.998Z,13.49
2018-10-07T01:50:01.107Z,13.26
2018-10-07T01:52:30.318Z,13.14
2018-10-07T01:54:59.503Z,13.26
2018-10-07T01:57:28.626Z,13.22
2018-10-07T01:59:57.750Z,13.19
2018-10-07T02:02:26.861Z,13.12
2018-10-07T02:04:56.400Z,13.28
2018-10-07T02:07:25.653Z,13.30
2018-10-07T02:09:54.959Z,13.33
2018-10-07T02:12:24.165Z,13.40
2018-10-07T02:14:53.274Z,13.39
2018-10-07T02:17:22.598Z,13.37
2018-10-07T02:19:51.703Z,13.39
2018-10-07T02:22:20.895Z,13.29
2018-10-07T02:24:49.990Z,13.21
2018-10-07T02:27:19.114Z,13.16
2018-10-07T02:29:48.226Z,13.18
2018-10-07T02:32:17.871Z,13.18
2018-10-07T02:34:47.042Z,13.12
2018-10-07T02:37:16.201Z,12.94
2018-10-07T02:39:45.335Z,12.90
2018-10-07T02:42:14.454Z,13.03
2018-10-07T02:44:44.631Z,13.13
2018-10-07T02:47:13.755Z,13.15
2018-10-07T02:49:43.945Z,13.26
2018-10-07T02:52:13.274Z,13.30
2018-10-07T02:54:42.438Z,13.19
2018-10-07T02:57:11.574Z,13.27
2018-10-07T02:59:41.342Z,13.28
2018-10-07T03:02:10.465Z,13.10
2018-10-07T03:04:39.601Z,12.93
2018-10-07T03:07:08.768Z,12.81
2018-10-07T03:09:38.021Z,12.65
2018-10-07T03:12:07.277Z,12.60
2018-10-07T03:14:36.610Z,12.47
2018-10-07T03:17:05.722Z,12.36
2018-10-07T03:19:34.826Z,12.21
2018-10-07T03:22:03.962Z,12.03
2018-10-07T03:24:33.081Z,11.83
2018-10-07T03:27:02.279Z,11.85
2018-10-07T03:29:31.419Z,11.84
2018-10-07T03:32:00.453Z,11.75
2018-10-07T03:34:29.563Z,11.69
2018-10-07T03:36:58.668Z,11.56
2018-10-07T03:39:27.789Z,11.51
2018-10-07T03:41:56.897Z,11.53
2018-10-07T03:44:26.011Z,11.58
2018-10-07T03:46:55.645Z,11.55
2018-10-07T03:49:24.754Z,11.50
2018-10-07T03:51:53.967Z,11.43
2018-10-07T03:54:23.169Z,11.30
2018-10-07T03:56:52.209Z,11.28
2018-10-07T03:59:21.346Z,11.39
2018-10-07T04:01:50.494Z,11.35
2018-10-07T04:04:19.587Z,11.31
2018-10-07T04:06:48.810Z,11.37
2018-10-07T04:09:17.938Z,11.39
2018-10-07T04:11:47.059Z,11.26
2018-10-07T04:14:16.202Z,11.18
2018-10-07T04:16:45.319Z,11.12
2018-10-07T04:19:14.435Z,11.02
2018-10-07T04:21:50.141Z,11.00
2018-10-07T04:24:19.267Z,10.81
2018-10-07T04:26:49.957Z,10.92
2018-10-07T04:29:19.075Z,10.99
2018-10-07T04:31:48.421Z,10.82
2018-10-07T04:34:17.945Z,10.69
2018-10-07T04:36:47.222Z,10.65
2018-10-07T04:39:16.422Z,10.51
2018-10-07T04:41:45.658Z,10.48
2018-10-07T04:44:14.936Z,10.43
2018-10-07T04:46:43.987Z,10.63
2018-10-07T04:49:13.083Z,10.62
2018-10-07T04:51:42.924Z,10.53
2018-10-07T04:54:12.049Z,10.49
2018-10-07T04:56:41.167Z,10.36
2018-10-07T04:59:10.313Z,10.31
2018-10-07T05:01:39.436Z,10.47
2018-10-07T05:04:08.574Z,10.49
2018-10-07T05:06:37.689Z,10.48
2018-10-07T05:09:08.954Z,10.23
2018-10-07T05:11:38.793Z,10.49
2018-10-07T05:14:09.430Z,10.40
2018-10-07T05:16:47.580Z,10.23
2018-10-07T05:19:17.125Z,10.28
2018-10-07T05:21:46.270Z,10.26
2018-10-07T05:24:15.393Z,10.27
2018-10-07T05:26:44.512Z,10.25
2018-10-07T05:29:13.632Z,10.24
2018-10-07T05:31:42.966Z,10.24
2018-10-07T05:34:12.197Z,10.33
2018-10-07T05:36:41.416Z,10.21
2018-10-07T05:39:11.897Z,10.15
2018-10-07T05:41:40.574Z,10.16
2018-10-07T05:44:10.946Z,10.22
2018-10-07T05:46:40.022Z,10.29
2018-10-07T05:49:09.126Z,10.32
2018-10-07T05:51:38.244Z,10.45
2018-10-07T05:54:07.551Z,10.41
2018-10-07T05:56:36.689Z,10.40
2018-10-07T05:59:07.335Z,10.44
2018-10-07T06:01:40.208Z,10.40
2018-10-07T06:04:22.690Z,10.45
2018-10-07T06:06:52.363Z,10.38
2018-10-07T06:09:27.801Z,10.47
2018-10-07T06:11:57.715Z,10.69
2018-10-07T06:14:43.733Z,10.66
2018-10-07T06:17:12.880Z,10.78
2018-10-07T06:19:42.004Z,10.85
2018-10-07T06:22:11.101Z,10.96
2018-10-07T06:24:40.226Z,11.06
2018-10-07T06:27:09.346Z,11.33
2018-10-07T06:29:38.846Z,12.19
2018-10-07T06:32:08.001Z,12.64
2018-10-07T06:34:37.126Z,13.02
2018-10-07T06:37:07.149Z,12.99
2018-10-07T06:39:36.409Z,13.58
2018-10-07T06:42:07.631Z,14.58
2018-10-07T06:44:36.965Z,15.47
2018-10-07T06:47:07.446Z,15.94
2018-10-07T06:49:36.940Z,16.10
2018-10-07T06:52:06.234Z,16.59
2018-10-07T06:54:35.334Z,17.09
2018-10-07T06:57:04.917Z,17.86
2018-10-07T06:59:34.087Z,18.12
2018-10-07T07:02:03.823Z,19.22
2018-10-07T07:04:33.010Z,19.92
2018-10-07T07:07:02.138Z,20.09
2018-10-07T07:09:31.254Z,21.17
2018-10-07T07:12:00.421Z,21.55
2018-10-07T07:14:29.534Z,22.15
2018-10-07T07:16:58.647Z,22.29
2018-10-07T07:19:28.977Z,23.11
2018-10-07T07:21:58.122Z,23.18
2018-10-07T07:24:28.855Z,23.15
2018-10-07T07:26:58.157Z,23.68
2018-10-07T07:29:27.854Z,24.22
2018-10-07T07:31:56.997Z,24.70
2018-10-07T07:34:26.108Z,24.92
2018-10-07T07:36:55.518Z,24.60
2018-10-07T07:39:25.025Z,24.57
2018-10-07T07:41:54.329Z,23.74
2018-10-07T07:44:23.050Z,22.58
2018-10-07T07:46:52.239Z,21.72
2018-10-07T07:49:21.410Z,21.54
2018-10-07T07:51:50.925Z,21.32
2018-10-07T07:54:20.078Z,20.84
2018-10-07T07:56:49.978Z,19.90
2018-10-07T07:59:19.071Z,19.43
2018-10-07T08:01:48.205Z,18.70
2018-10-07T08:04:17.354Z,18.59
2018-10-07T08:06:46.434Z,18.54
2018-10-07T08:09:16.253Z,18.44
2018-10-07T08:11:45.350Z,18.46
2018-10-07T08:14:14.523Z,18.44
2018-10-07T08:16:43.726Z,18.37
2018-10-07T08:19:13.527Z,18.28
2018-10-07T08:21:42.636Z,18.08
2018-10-07T08:24:13.277Z,18.04
2018-10-07T08:26:42.549Z,17.83
2018-10-07T08:29:12.375Z,17.88
2018-10-07T08:31:42.022Z,17.75
2018-10-07T08:34:11.295Z,17.81
2018-10-07T08:36:41.298Z,17.96
2018-10-07T08:39:10.925Z,18.01
2018-10-07T08:41:40.422Z,18.10
2018-10-07T08:44:09.618Z,17.95
2018-10-07T08:46:39.343Z,18.20
2018-10-07T08:49:08.629Z,18.39
2018-10-07T08:51:38.242Z,18.56
2018-10-07T08:54:07.808Z,18.62
2018-10-07T08:56:37.071Z,18.81
2018-10-07T08:59:06.560Z,19.18
2018-10-07T09:01:36.766Z,19.31
2018-10-07T09:04:06.038Z,19.40
2018-10-07T09:06:34.878Z,19.73
2018-10-07T09:09:05.767Z,20.00
2018-10-07T09:11:36.125Z,20.45
2018-10-07T09:14:06.098Z,20.98
2018-10-07T09:16:35.355Z,21.02
2018-10-07T09:19:04.527Z,20.12
2018-10-07T09:21:33.652Z,20.08
2018-10-07T09:24:05.298Z,20.16
2018-10-07T09:26:34.809Z,20.56
2018-10-07T09:29:04.217Z,20.88
2018-10-07T09:31:33.577Z,20.33
2018-10-07T09:34:02.414Z,20.26
2018-10-07T09:36:31.290Z,19.91
2018-10-07T09:39:00.602Z,20.29
2018-10-07T09:41:30.705Z,20.93
2018-10-07T09:43:59.921Z,20.88
2018-10-07T09:46:29.190Z,21.19
2018-10-07T09:48:58.331Z,21.45
2018-10-07T09:51:27.430Z,21.26
2018-10-07T09:53:57.297Z,21.20
2018-10-07T09:56:26.682Z,20.90
2018-10-07T09:58:55.910Z,21.15
2018-10-07T10:01:25.797Z,20.84
2018-10-07T10:03:54.909Z,20.51
2018-10-07T10:06:24.573Z,20.67
2018-10-07T10:08:53.869Z,19.80
2018-10-07T10:11:23.598Z,20.38
2018-10-07T10:13:53.335Z,19.89
2018-10-07T10:16:30.630Z,20.20
2018-10-07T10:18:59.753Z,20.22
2018-10-07T10:21:36.338Z,20.26
2018-10-07T10:24:28.782Z,20.45
2018-10-07T10:27:11.715Z,20.17
2018-10-07T10:29:49.681Z,20.14
2018-10-07T10:32:30.655Z,20.21
2018-10-07T10:35:20.630Z,20.34
2018-10-07T10:38:04.310Z,20.39
2018-10-07T10:40:38.447Z,20.07
2018-10-07T10:43:20.036Z,20.33
2018-10-07T10:47:58.281Z,20.33
2018-10-07T10:50:45.230Z,19.94
2018-10-07T10:53:23.922Z,19.80
2018-10-07T10:56:29.778Z,19.70
2018-10-07T11:01:14.517Z,19.74
2018-10-07T11:03:59.466Z,19.90
2018-10-07T11:06:46.748Z,20.37
2018-10-07T11:09:40.173Z,20.53
2018-10-07T11:14:28.971Z,20.80
2018-10-07T11:17:19.293Z,20.96
2018-10-07T11:19:57.171Z,21.95
2018-10-07T11:23:08.302Z,22.61
2018-10-07T11:25:53.041Z,23.63
2018-10-07T11:28:26.202Z,23.96
2018-10-07T11:32:07.137Z,24.66
2018-10-07T11:36:51.297Z,27.15
2018-10-07T11:39:44.057Z,30.22
2018-10-07T11:42:26.231Z,29.04
2018-10-07T11:45:08.685Z,29.18
2018-10-07T11:49:56.537Z,29.88
2018-10-07T11:52:46.044Z,31.30
2018-10-07T11:55:15.126Z,31.51
2018-10-07T11:57:44.274Z,34.67
2018-10-07T12:00:13.463Z,36.96
2018-10-07T12:02:42.591Z,35.38
2018-10-07T12:05:11.670Z,34.84
2018-10-07T12:07:40.803Z,32.62
2018-10-07T12:10:09.954Z,34.57
2018-10-07T12:12:39.506Z,35.85
2018-10-07T12:15:08.734Z,35.37
2018-10-07T12:17:38.514Z,37.19
2018-10-07T12:20:08.948Z,37.90
2018-10-07T12:22:38.789Z,37.66
2018-10-07T12:25:07.946Z,32.91
2018-10-07T12:27:37.110Z,29.57
2018-10-07T12:30:06.853Z,31.20
2018-10-07T12:32:35.962Z,31.21
2018-10-07T12:35:05.134Z,28.49
2018-10-07T12:37:41.360Z,25.76
2018-10-07T12:40:10.500Z,23.75
2018-10-07T12:42:39.644Z,22.81
2018-10-07T12:45:08.769Z,22.71
2018-10-07T12:47:38.777Z,22.01
2018-10-07T12:50:08.386Z,22.12
2018-10-07T12:52:38.417Z,21.83
2018-10-07T12:55:07.790Z,22.13
2018-10-07T12:57:37.555Z,21.61
2018-10-07T13:00:06.293Z,21.61
2018-10-07T13:02:35.576Z,21.56
2018-10-07T13:05:04.759Z,21.75
2018-10-07T13:07:33.851Z,21.55
2018-10-07T13:10:02.962Z,21.80
2018-10-07T13:12:32.114Z,21.88
2018-10-07T13:15:01.314Z,21.71
2018-10-07T13:17:30.434Z,21.80
2018-10-07T13:19:59.978Z,21.93
2018-10-07T13:22:29.347Z,21.96
2018-10-07T13:24:58.446Z,21.75
2018-10-07T13:27:27.529Z,21.87
2018-10-07T13:29:56.642Z,22.08
2018-10-07T13:32:26.148Z,22.34
2018-10-07T13:34:55.280Z,22.42
2018-10-07T13:37:24.693Z,22.34
2018-10-07T13:39:53.857Z,22.13
2018-10-07T13:42:22.958Z,21.92
2018-10-07T13:44:52.082Z,21.86
2018-10-07T13:47:21.314Z,21.89
2018-10-07T13:49:50.982Z,22.17
2018-10-07T13:52:20.141Z,21.94
2018-10-07T13:54:49.998Z,21.75
2018-10-07T13:57:19.287Z,21.72
2018-10-07T13:59:48.538Z,21.76
2018-10-07T14:02:17.923Z,21.90
2018-10-07T14:04:47.394Z,21.88
2018-10-07T14:07:16.662Z,21.82
2018-10-07T14:09:45.941Z,21.84
2018-10-07T14:12:15.117Z,21.76
2018-10-07T14:14:46.614Z,21.78
2018-10-07T14:17:15.885Z,21.90
2018-10-07T14:19:45.182Z,21.70
2018-10-07T14:22:14.425Z,21.72
2018-10-07T14:24:45.438Z,21.87
2018-10-07T14:27:15.289Z,22.10
2018-10-07T14:29:44.387Z,22.05
2018-10-07T14:32:13.477Z,21.97
2018-10-07T14:34:44.706Z,22.04
2018-10-07T14:37:13.833Z,22.05
2018-10-07T14:39:42.910Z,21.98
2018-10-07T14:42:12.225Z,22.05
2018-10-07T14:44:41.743Z,21.90
2018-10-07T14:47:10.830Z,21.79
2018-10-07T14:49:40.085Z,21.67
2018-10-07T14:52:09.445Z,21.60
2018-10-07T14:54:38.538Z,21.56
2018-10-07T14:57:07.650Z,21.61
2018-10-07T14:59:37.618Z,21.64
2018-10-07T15:02:07.684Z,21.44
2018-10-07T15:04:36.959Z,21.41
2018-10-07T15:07:06.286Z,21.43
2018-10-07T15:09:35.578Z,21.35
2018-10-07T15:12:04.630Z,21.30
2018-10-07T15:14:35.038Z,21.26
2018-10-07T15:17:04.561Z,21.20
2018-10-07T15:19:33.649Z,21.19
2018-10-07T15:22:03.047Z,21.09
2018-10-07T15:24:32.277Z,21.10
2018-10-07T15:27:01.417Z,21.05
2018-10-07T15:29:30.818Z,21.00
2018-10-07T15:31:59.854Z,20.85
2018-10-07T15:34:28.986Z,20.85
2018-10-07T15:36:58.474Z,20.80
2018-10-07T15:39:27.710Z,20.79
2018-10-07T15:41:57.002Z,20.73
2018-10-07T15:44:26.298Z,20.67
2018-10-07T15:46:55.657Z,20.66
2018-10-07T15:49:25.262Z,20.51
2018-10-07T15:51:56.247Z,20.52
2018-10-07T15:54:26.093Z,20.48
2018-10-07T15:56:55.466Z,20.43
2018-10-07T15:59:24.838Z,20.30
2018-10-07T16:01:54.325Z,20.15
2018-10-07T16:04:23.962Z,20.01
2018-10-07T16:06:53.446Z,20.05
2018-10-07T16:09:23.197Z,20.02
2018-10-07T16:11:53.522Z,20.01
2018-10-07T16:14:23.514Z,19.89
2018-10-07T16:16:54.114Z,19.89
2018-10-07T16:19:23.328Z,19.85
2018-10-07T16:21:52.447Z,19.78
2018-10-07T16:24:21.735Z,19.80
2018-10-07T16:26:52.483Z,19.59
2018-10-07T16:29:21.878Z,19.36
2018-10-07T16:31:51.021Z,19.19
2018-10-07T16:34:20.181Z,19.07
2018-10-07T16:36:49.310Z,18.92
2018-10-07T16:39:18.552Z,18.97
2018-10-07T16:41:47.714Z,19.07
2018-10-07T16:44:16.813Z,19.04
2018-10-07T16:46:46.249Z,18.86
2018-10-07T16:49:15.363Z,19.00
2018-10-07T16:51:44.544Z,18.90
2018-10-07T16:54:13.832Z,18.88
2018-10-07T16:56:43.478Z,18.82
2018-10-07T16:59:13.145Z,18.83
2018-10-07T17:01:42.437Z,18.69
2018-10-07T17:04:11.549Z,18.81
2018-10-07T17:06:41.017Z,18.77
2018-10-07T17:09:11.376Z,18.76
2018-10-07T17:11:41.226Z,18.50
2018-10-07T17:14:10.442Z,18.35
2018-10-07T17:16:39.620Z,18.22
2018-10-07T17:19:08.837Z,18.12
2018-10-07T17:21:38.154Z,18.07
2018-10-07T17:24:07.246Z,17.88
2018-10-07T17:26:37.213Z,18.06
2018-10-07T17:29:06.991Z,17.96
2018-10-07T17:31:36.080Z,17.75
2018-10-07T17:34:05.218Z,17.68
2018-10-07T17:36:34.369Z,17.60
2018-10-07T17:39:05.978Z,17.70
2018-10-07T17:41:35.083Z,17.65
2018-10-07T17:44:04.210Z,17.56
2018-10-07T17:46:33.402Z,17.41
2018-10-07T17:49:02.738Z,17.36
2018-10-07T17:51:32.264Z,17.27
2018-10-07T17:54:01.514Z,17.16
2018-10-07T17:56:30.605Z,17.14
2018-10-07T17:58:59.941Z,17.09
2018-10-07T18:01:29.495Z,17.08
2018-10-07T18:04:00.266Z,17.02
2018-10-07T18:06:29.341Z,17.11
2018-10-07T18:08:58.506Z,17.13
2018-10-07T18:11:27.590Z,17.16
2018-10-07T18:13:57.929Z,17.04
2018-10-07T18:16:26.782Z,16.94
2018-10-07T18:18:56.105Z,16.88
2018-10-07T18:21:25.251Z,16.94
2018-10-07T18:23:54.629Z,16.86
2018-10-07T18:26:23.741Z,16.79
2018-10-07T18:28:53.319Z,16.80
2018-10-07T18:31:22.230Z,16.66
2018-10-07T18:33:51.329Z,16.57
2018-10-07T18:36:20.547Z,16.50
2018-10-07T18:38:50.186Z,16.40
2018-10-07T18:41:19.354Z,16.37
2018-10-07T18:43:48.498Z,16.20
2018-10-07T18:46:18.075Z,16.08
2018-10-07T18:48:47.326Z,16.23
2018-10-07T18:51:16.370Z,16.20
2018-10-07T18:53:45.496Z,16.24
2018-10-07T18:56:14.641Z,16.14
2018-10-07T18:58:44.517Z,16.28
2018-10-07T19:01:14.411Z,16.22
2018-10-07T19:03:43.218Z,16.22
2018-10-07T19:06:12.320Z,16.34
2018-10-07T19:08:41.478Z,16.24
2018-10-07T19:11:10.586Z,16.21
2018-10-07T19:13:46.069Z,16.25
2018-10-07T19:16:17.622Z,16.14
2018-10-07T19:18:47.370Z,16.11
2018-10-07T19:21:16.754Z,16.15
2018-10-07T19:23:46.146Z,16.04
2018-10-07T19:26:15.717Z,16.03
2018-10-07T19:28:45.083Z,16.01
2018-10-07T19:31:14.422Z,16.05
2018-10-07T19:33:44.657Z,15.93
2018-10-07T19:36:13.858Z,15.95
2018-10-07T19:38:43.015Z,15.98
2018-10-07T19:41:12.143Z,15.85
2018-10-07T19:43:41.277Z,15.80
2018-10-07T19:46:10.421Z,15.78
2018-10-07T19:48:40.287Z,15.79
2018-10-07T19:51:09.702Z,15.77
2018-10-07T19:53:39.385Z,15.71
2018-10-07T19:56:07.369Z,15.73
2018-10-07T19:58:36.497Z,15.65
2018-10-07T20:01:06.110Z,15.62
2018-10-07T20:03:35.665Z,15.57
2018-10-07T20:06:05.294Z,15.49
2018-10-07T20:08:35.630Z,15.37
2018-10-07T20:11:04.958Z,15.32
2018-10-07T20:13:34.123Z,15.32
2018-10-07T20:16:04.006Z,15.29
2018-10-07T20:18:35.261Z,15.12
2018-10-07T20:21:04.657Z,15.10
2018-10-07T20:23:34.564Z,15.04
2018-10-07T20:26:04.548Z,14.94
2018-10-07T20:28:34.453Z,14.95
2018-10-07T20:31:09.227Z,14.79
2018-10-07T20:33:40.102Z,14.71
2018-10-07T20:36:09.977Z,14.61
2018-10-07T20:38:39.841Z,14.58
2018-10-07T20:41:09.815Z,14.58
2018-10-07T20:43:39.681Z,14.60
2018-10-07T20:46:08.958Z,14.46
2018-10-07T20:48:38.657Z,14.43
2018-10-07T20:51:08.502Z,14.31
2018-10-07T20:53:37.886Z,14.20
2018-10-07T20:56:07.455Z,14.08
2018-10-07T20:58:37.727Z,14.04
2018-10-07T21:01:07.037Z,13.86
2018-10-07T21:03:36.538Z,13.82
2018-10-07T21:06:06.030Z,13.84
2018-10-07T21:08:36.727Z,13.70
2018-10-07T21:11:06.201Z,13.60
2018-10-07T21:13:35.334Z,13.52
2018-10-07T21:16:05.691Z,13.55
2018-10-07T21:18:36.028Z,13.69
2018-10-07T21:21:05.828Z,13.76
2018-10-07T21:23:36.334Z,13.79
2018-10-07T21:26:05.482Z,13.66
2018-10-07T21:28:34.843Z,13.64
2018-10-07T21:31:04.019Z,13.57
2018-10-07T21:33:34.774Z,13.61
2018-10-07T21:36:04.030Z,13.74
2018-10-07T21:38:33.287Z,13.69
2018-10-07T21:41:02.561Z,13.57
2018-10-07T21:43:31.761Z,13.50
2018-10-07T21:46:00.998Z,13.40
2018-10-07T21:48:30.130Z,13.35
2018-10-07T21:50:59.629Z,13.34
2018-10-07T21:53:29.100Z,13.28
2018-10-07T21:55:58.196Z,13.17
2018-10-07T21:58:27.299Z,13.15
2018-10-07T22:00:56.401Z,13.16
2018-10-07T22:03:26.283Z,13.21
2018-10-07T22:05:55.435Z,13.15
2018-10-07T22:08:24.617Z,13.03
2018-10-07T22:10:54.428Z,12.93
2018-10-07T22:13:25.155Z,12.81
2018-10-07T22:15:54.468Z,12.63
2018-10-07T22:18:24.178Z,12.55
2018-10-07T22:20:53.506Z,12.62
2018-10-07T22:23:26.412Z,12.73
2018-10-07T22:25:56.030Z,12.73
2018-10-07T22:28:25.125Z,12.80
2018-10-07T22:30:54.234Z,12.75
2018-10-07T22:33:24.459Z,12.70
2018-10-07T22:35:53.839Z,12.66
2018-10-07T22:38:23.459Z,12.54
2018-10-07T22:40:54.162Z,12.48
2018-10-07T22:43:22.978Z,12.35
2018-10-07T22:45:52.305Z,12.20
2018-10-07T22:48:23.078Z,12.16
2018-10-07T22:50:52.515Z,12.21
2018-10-07T22:53:21.654Z,12.09
2018-10-07T22:55:50.742Z,12.15
2018-10-07T22:58:20.290Z,12.21
2018-10-07T23:00:49.436Z,12.18
2018-10-07T23:03:19.348Z,12.13
2018-10-07T23:05:48.558Z,12.23
2018-10-07T23:08:18.412Z,12.28
2018-10-07T23:10:47.774Z,12.17
2018-10-07T23:13:18.061Z,12.13
2018-10-07T23:15:47.369Z,12.17
2018-10-07T23:18:16.758Z,12.12
2018-10-07T23:20:46.206Z,12.10
2018-10-07T23:23:15.574Z,12.07
2018-10-07T23:25:44.736Z,11.99
2018-10-07T23:28:13.898Z,12.01
2018-10-07T23:30:43.069Z,12.03
2018-10-07T23:33:12.238Z,11.98
2018-10-07T23:35:41.391Z,12.02
2018-10-07T23:38:10.672Z,11.97
2018-10-07T23:40:40.302Z,11.95
2018-10-07T23:43:09.434Z,11.96
2018-10-07T23:45:38.707Z,11.90
2018-10-07T23:48:07.879Z,11.84
2018-10-07T23:50:37.841Z,11.87
2018-10-07T23:53:06.978Z,11.82
2018-10-07T23:55:36.130Z,11.73
2018-10-07T23:58:05.271Z,11.65
